createdAt,value
2018-07-27T00:00:07.528Z,22.4
2018-07-27T00:02:10.976Z,22.3
2018-07-27T00:03:11.691Z,22.3
2018-07-27T00:04:12.421Z,22.3
2018-07-27T00:05:13.155Z,22.3
2018-07-27T00:06:13.886Z,22.3
2018-07-27T00:07:14.607Z,22.3
2018-07-27T00:08:15.336Z,22.2
2018-07-27T00:09:16.061Z,22.4
2018-07-27T00:10:16.783Z,22.3
2018-07-27T00:11:17.517Z,22.3
2018-07-27T00:12:18.258Z,22.2
2018-07-27T00:13:19.243Z,22.2
2018-07-27T00:14:19.966Z,22.2
2018-07-27T00:15:21.060Z,22.3
2018-07-27T00:16:21.790Z,22.2
2018-07-27T00:17:22.513Z,22.3
2018-07-27T00:18:23.250Z,22.3
2018-07-27T00:19:23.990Z,22.2
2018-07-27T00:20:24.709Z,22.3
2018-07-27T00:21:25.438Z,22.2
2018-07-27T00:22:26.418Z,22.2
2018-07-27T00:23:27.163Z,22.3
2018-07-27T00:24:27.893Z,22.1
2018-07-27T00:25:28.616Z,22.1
2018-07-27T00:26:29.348Z,22.2
2018-07-27T00:27:30.386Z,22.2
2018-07-27T00:28:31.122Z,22.2
2018-07-27T00:29:31.857Z,22.2
2018-07-27T00:30:32.579Z,22.1
2018-07-27T00:31:33.310Z,22.2
2018-07-27T00:32:34.395Z,22.1
2018-07-27T00:33:35.129Z,22.2
2018-07-27T00:34:35.855Z,22.1
2018-07-27T00:35:36.577Z,22.2
2018-07-27T00:36:37.315Z,22.2
2018-07-27T00:37:38.303Z,22.1
2018-07-27T00:38:39.032Z,22.2
2018-07-27T00:39:39.777Z,22.2
2018-07-27T00:40:40.527Z,22.1
2018-07-27T00:41:41.261Z,22.2
2018-07-27T00:42:41.992Z,22.1
2018-07-27T00:43:42.733Z,22.2
2018-07-27T00:44:43.711Z,22.1
2018-07-27T00:45:44.453Z,22.1
2018-07-27T00:46:45.181Z,22.1
2018-07-27T00:47:45.902Z,22.0
2018-07-27T00:48:46.638Z,22.1
2018-07-27T00:49:47.375Z,22.0
2018-07-27T00:50:48.098Z,22.0
2018-07-27T00:51:48.823Z,22.0
2018-07-27T00:52:49.554Z,22.0
2018-07-27T00:53:50.303Z,22.0
2018-07-27T00:54:51.031Z,22.0
2018-07-27T00:55:51.748Z,21.9
2018-07-27T00:56:52.474Z,22.0
2018-07-27T00:57:53.205Z,21.9
2018-07-27T00:58:54.181Z,21.8
2018-07-27T00:59:55.175Z,21.7
2018-07-27T01:00:55.922Z,21.8
2018-07-27T01:01:56.658Z,21.7
2018-07-27T01:02:57.384Z,21.8
2018-07-27T01:03:58.105Z,21.8
2018-07-27T01:04:59.089Z,21.7
2018-07-27T01:06:00.123Z,21.8
2018-07-27T01:07:00.862Z,21.8
2018-07-27T01:08:01.841Z,21.8
2018-07-27T01:09:02.829Z,21.7
2018-07-27T01:10:03.588Z,21.6
2018-07-27T01:11:04.315Z,21.6
2018-07-27T01:12:05.301Z,21.7
2018-07-27T01:13:06.051Z,21.7
2018-07-27T01:14:06.772Z,21.7
2018-07-27T01:15:07.546Z,21.6
2018-07-27T01:16:08.276Z,21.6
2018-07-27T01:17:09.002Z,21.6
2018-07-27T01:18:09.737Z,21.5
2018-07-27T01:19:10.708Z,21.6
2018-07-27T01:20:11.677Z,21.6
2018-07-27T01:21:12.401Z,21.5
2018-07-27T01:22:13.123Z,21.6
2018-07-27T01:23:13.849Z,21.5
2018-07-27T01:24:14.590Z,21.5
2018-07-27T01:25:15.329Z,21.5
2018-07-27T01:26:16.103Z,21.4
2018-07-27T01:27:16.822Z,21.5
2018-07-27T01:28:17.560Z,21.4
2018-07-27T01:29:18.283Z,21.3
2018-07-27T01:30:19.021Z,21.4
2018-07-27T01:31:19.737Z,21.3
2018-07-27T01:32:20.461Z,21.4
2018-07-27T01:33:21.442Z,21.3
2018-07-27T01:34:22.416Z,21.2
2018-07-27T01:35:23.142Z,21.2
2018-07-27T01:36:23.868Z,21.2
2018-07-27T01:37:24.843Z,21.3
2018-07-27T01:38:25.626Z,21.3
2018-07-27T01:39:26.347Z,21.2
2018-07-27T01:40:27.076Z,21.1
2018-07-27T01:41:28.050Z,21.2
2018-07-27T01:42:28.775Z,21.2
2018-07-27T01:43:29.508Z,21.2
2018-07-27T01:44:30.221Z,21.2
2018-07-27T01:45:31.184Z,21.2
2018-07-27T01:46:31.941Z,21.1
2018-07-27T01:47:32.669Z,21.1
2018-07-27T01:48:33.447Z,21.1
2018-07-27T01:49:34.200Z,21.1
2018-07-27T01:50:34.922Z,21.0
2018-07-27T01:51:35.655Z,21.1
2018-07-27T01:52:36.374Z,21.0
2018-07-27T01:53:37.108Z,21.0
2018-07-27T01:54:37.828Z,20.9
2018-07-27T01:55:38.801Z,20.9
2018-07-27T01:56:39.530Z,20.9
2018-07-27T01:57:40.269Z,20.9
2018-07-27T01:58:41.026Z,20.8
2018-07-27T01:59:41.821Z,20.9
2018-07-27T02:00:42.551Z,20.8
2018-07-27T02:01:43.280Z,20.8
2018-07-27T02:02:44.000Z,20.8
2018-07-27T02:03:44.719Z,20.8
2018-07-27T02:04:45.746Z,20.8
2018-07-27T02:05:46.483Z,20.7
2018-07-27T02:06:47.210Z,20.7
2018-07-27T02:07:47.943Z,20.6
2018-07-27T02:08:48.666Z,20.8
2018-07-27T02:09:49.408Z,20.8
2018-07-27T02:10:50.380Z,20.7
2018-07-27T02:11:51.098Z,20.6
2018-07-27T02:12:51.820Z,20.6
2018-07-27T02:13:52.539Z,20.6
2018-07-27T02:14:53.289Z,20.7
2018-07-27T02:15:54.032Z,20.6
2018-07-27T02:16:54.760Z,20.7
2018-07-27T02:17:55.489Z,20.6
2018-07-27T02:18:56.205Z,20.6
2018-07-27T02:19:56.931Z,20.5
2018-07-27T02:20:57.665Z,20.5
2018-07-27T02:21:58.391Z,20.5
2018-07-27T02:22:59.117Z,20.5
2018-07-27T02:23:59.836Z,20.5
2018-07-27T02:25:00.573Z,20.5
2018-07-27T02:26:01.297Z,20.4
2018-07-27T02:27:02.009Z,20.5
2018-07-27T02:28:02.736Z,20.3
2018-07-27T02:29:03.822Z,20.2
2018-07-27T02:30:04.540Z,20.3
2018-07-27T02:31:05.271Z,20.3
2018-07-27T02:32:05.990Z,20.3
2018-07-27T02:33:06.722Z,20.3
2018-07-27T02:34:07.512Z,20.2
2018-07-27T02:35:08.239Z,20.2
2018-07-27T02:36:08.964Z,20.2
2018-07-27T02:37:09.683Z,20.2
2018-07-27T02:38:10.649Z,20.2
2018-07-27T02:39:11.379Z,20.2
2018-07-27T02:40:12.365Z,20.2
2018-07-27T02:41:13.083Z,20.1
2018-07-27T02:42:14.332Z,20.2
2018-07-27T02:43:15.047Z,20.1
2018-07-27T02:44:15.770Z,20.0
2018-07-27T02:45:16.742Z,20.1
2018-07-27T02:46:17.729Z,20.0
2018-07-27T02:47:18.434Z,20.1
2018-07-27T02:48:19.153Z,20.1
2018-07-27T02:49:19.870Z,20.1
2018-07-27T02:50:20.834Z,20.1
2018-07-27T02:51:21.606Z,20.0
2018-07-27T02:52:22.324Z,19.9
2018-07-27T02:53:23.049Z,20.0
2018-07-27T02:54:23.842Z,19.9
2018-07-27T02:55:24.567Z,19.9
2018-07-27T02:56:25.297Z,19.9
2018-07-27T02:57:26.288Z,19.8
2018-07-27T02:58:27.008Z,19.8
2018-07-27T02:59:27.728Z,19.8
2018-07-27T03:00:28.801Z,19.8
2018-07-27T03:01:29.536Z,19.8
2018-07-27T03:02:30.267Z,19.8
2018-07-27T03:03:30.993Z,19.7
2018-07-27T03:04:31.717Z,19.7
2018-07-27T03:05:32.692Z,19.7
2018-07-27T03:06:33.416Z,19.8
2018-07-27T03:07:34.389Z,19.7
2018-07-27T03:08:35.117Z,19.8
2018-07-27T03:09:35.935Z,19.6
2018-07-27T03:10:36.563Z,19.7
2018-07-27T03:11:37.543Z,19.6
2018-07-27T03:12:38.269Z,19.7
2018-07-27T03:13:38.998Z,19.7
2018-07-27T03:14:39.710Z,19.6
2018-07-27T03:15:40.434Z,19.6
2018-07-27T03:16:41.158Z,19.6
2018-07-27T03:17:42.147Z,19.6
2018-07-27T03:18:42.866Z,19.6
2018-07-27T03:19:43.593Z,19.6
2018-07-27T03:20:44.321Z,19.6
2018-07-27T03:21:45.056Z,19.6
2018-07-27T03:22:45.829Z,19.5
2018-07-27T03:23:46.546Z,19.5
2018-07-27T03:24:47.282Z,19.6
2018-07-27T03:25:48.013Z,19.6
2018-07-27T03:26:48.742Z,19.6
2018-07-27T03:27:49.464Z,19.6
2018-07-27T03:28:50.215Z,19.7
2018-07-27T03:29:50.933Z,19.5
2018-07-27T03:30:51.669Z,19.5
2018-07-27T03:31:52.443Z,19.5
2018-07-27T03:32:53.177Z,19.5
2018-07-27T03:33:53.910Z,19.5
2018-07-27T03:34:54.645Z,19.5
2018-07-27T03:35:55.381Z,19.5
2018-07-27T03:36:56.166Z,19.5
2018-07-27T03:37:56.906Z,19.5
2018-07-27T03:38:57.630Z,19.5
2018-07-27T03:39:58.361Z,19.5
2018-07-27T03:40:59.099Z,19.4
2018-07-27T03:41:59.940Z,19.4
2018-07-27T03:43:00.623Z,19.4
2018-07-27T03:44:01.351Z,19.4
2018-07-27T03:45:02.332Z,19.4
2018-07-27T03:46:03.071Z,19.4
2018-07-27T03:47:03.846Z,19.4
2018-07-27T03:48:04.569Z,19.4
2018-07-27T03:49:05.293Z,19.5
2018-07-27T03:50:06.033Z,19.4
2018-07-27T03:51:06.759Z,19.4
2018-07-27T03:52:07.724Z,19.4
2018-07-27T03:53:08.458Z,19.4
2018-07-27T03:54:09.196Z,19.4
2018-07-27T03:55:09.930Z,19.4
2018-07-27T03:56:10.674Z,19.4
2018-07-27T03:57:11.469Z,19.4
2018-07-27T03:58:12.199Z,19.4
2018-07-27T03:59:12.932Z,19.4
2018-07-27T04:00:14.170Z,19.4
2018-07-27T04:01:14.897Z,19.4
2018-07-27T04:02:15.617Z,19.4
2018-07-27T04:03:16.400Z,19.4
2018-07-27T04:04:17.127Z,19.4
2018-07-27T04:05:19.004Z,19.4
2018-07-27T04:06:19.739Z,19.4
2018-07-27T04:07:20.785Z,19.5
2018-07-27T04:08:21.615Z,19.4
2018-07-27T04:09:22.375Z,19.4
2018-07-27T04:10:23.199Z,19.4
2018-07-27T04:11:24.026Z,19.4
2018-07-27T04:12:25.027Z,19.4
2018-07-27T04:13:25.764Z,19.4
2018-07-27T04:14:26.668Z,19.5
2018-07-27T04:15:27.513Z,19.5
2018-07-27T04:16:28.261Z,19.4
2018-07-27T04:17:29.458Z,19.4
2018-07-27T04:18:30.215Z,19.5
2018-07-27T04:19:31.114Z,19.5
2018-07-27T04:20:31.837Z,19.5
2018-07-27T04:21:32.959Z,19.5
2018-07-27T04:22:34.239Z,19.5
2018-07-27T04:23:34.943Z,19.5
2018-07-27T04:24:35.760Z,19.5
2018-07-27T04:25:36.871Z,19.5
2018-07-27T04:26:37.979Z,19.5
2018-07-27T04:27:38.797Z,19.5
2018-07-27T04:28:39.644Z,19.5
2018-07-27T04:29:40.517Z,19.5
2018-07-27T04:30:41.277Z,19.5
2018-07-27T04:31:42.250Z,19.6
2018-07-27T04:32:43.390Z,19.7
2018-07-27T04:33:44.183Z,19.6
2018-07-27T04:34:45.131Z,19.6
2018-07-27T04:35:45.939Z,19.6
2018-07-27T04:36:46.697Z,19.7
2018-07-27T04:37:47.914Z,19.6
2018-07-27T04:38:49.583Z,19.6
2018-07-27T04:39:50.340Z,19.6
2018-07-27T04:40:51.162Z,19.6
2018-07-27T04:41:51.899Z,19.6
2018-07-27T04:42:52.696Z,19.7
2018-07-27T04:43:53.366Z,19.7
2018-07-27T04:44:54.100Z,19.8
2018-07-27T04:45:54.825Z,19.8
2018-07-27T04:46:55.852Z,19.8
2018-07-27T04:47:56.585Z,19.9
2018-07-27T04:48:57.316Z,19.9
2018-07-27T04:49:58.299Z,19.9
2018-07-27T04:50:59.052Z,19.9
2018-07-27T04:51:59.839Z,19.9
2018-07-27T04:53:00.580Z,20.0
2018-07-27T04:54:01.308Z,20.0
2018-07-27T04:55:02.044Z,20.0
2018-07-27T04:56:02.761Z,20.1
2018-07-27T04:57:03.496Z,20.2
2018-07-27T04:58:04.474Z,20.2
2018-07-27T04:59:05.207Z,20.2
2018-07-27T05:00:05.944Z,20.2
2018-07-27T05:01:06.664Z,20.2
2018-07-27T05:02:07.403Z,20.3
2018-07-27T05:03:08.166Z,20.3
2018-07-27T05:04:08.886Z,20.3
2018-07-27T05:05:09.622Z,20.5
2018-07-27T05:06:10.378Z,20.4
2018-07-27T05:07:11.098Z,20.6
2018-07-27T05:08:11.842Z,20.6
2018-07-27T05:09:12.625Z,20.7
2018-07-27T05:10:13.368Z,20.8
2018-07-27T05:11:14.089Z,20.8
2018-07-27T05:12:15.064Z,20.9
2018-07-27T05:13:15.805Z,21.0
2018-07-27T05:14:16.600Z,21.0
2018-07-27T05:15:17.323Z,21.1
2018-07-27T05:16:18.059Z,21.2
2018-07-27T05:17:18.795Z,21.1
2018-07-27T05:18:19.577Z,21.2
2018-07-27T05:19:20.327Z,21.3
2018-07-27T05:20:21.074Z,21.3
2018-07-27T05:21:21.800Z,21.4
2018-07-27T05:22:22.546Z,21.5
2018-07-27T05:23:23.267Z,21.7
2018-07-27T05:24:24.290Z,21.8
2018-07-27T05:25:25.030Z,21.9
2018-07-27T05:26:25.764Z,22.1
2018-07-27T05:27:26.495Z,22.2
2018-07-27T05:28:27.231Z,22.2
2018-07-27T05:29:27.953Z,22.3
2018-07-27T05:30:28.723Z,22.5
2018-07-27T05:31:29.717Z,22.6
2018-07-27T05:32:30.437Z,22.7
2018-07-27T05:33:31.170Z,22.9
2018-07-27T05:34:31.907Z,23.1
2018-07-27T05:35:32.654Z,23.3
2018-07-27T05:36:33.385Z,23.5
2018-07-27T05:37:34.099Z,23.6
2018-07-27T05:38:34.845Z,23.8
2018-07-27T05:39:35.588Z,23.9
2018-07-27T05:40:36.343Z,24.1
2018-07-27T05:41:37.075Z,24.4
2018-07-27T05:42:37.807Z,24.5
2018-07-27T05:43:38.791Z,24.5
2018-07-27T05:44:39.538Z,24.6
2018-07-27T05:45:40.304Z,24.8
2018-07-27T05:46:41.128Z,24.8
2018-07-27T05:47:41.865Z,24.9
2018-07-27T05:48:42.649Z,25.0
2018-07-27T05:49:43.327Z,25.2
2018-07-27T05:50:44.406Z,25.2
2018-07-27T05:51:45.139Z,25.2
2018-07-27T05:52:45.943Z,25.3
2018-07-27T05:53:46.608Z,25.3
2018-07-27T05:54:47.330Z,25.3
2018-07-27T05:55:48.056Z,25.4
2018-07-27T05:56:48.798Z,25.4
2018-07-27T05:57:49.534Z,25.5
2018-07-27T05:58:50.262Z,25.3
2018-07-27T05:59:51.003Z,25.4
2018-07-27T06:00:51.732Z,25.3
2018-07-27T06:01:52.477Z,25.3
2018-07-27T06:02:53.229Z,25.2
2018-07-27T06:03:53.947Z,25.2
2018-07-27T06:04:54.711Z,25.1
2018-07-27T06:05:55.419Z,25.2
2018-07-27T06:06:56.177Z,25.1
2018-07-27T06:07:56.901Z,25.1
2018-07-27T06:08:57.678Z,25.2
2018-07-27T06:09:58.416Z,25.2
2018-07-27T06:10:59.152Z,25.2
2018-07-27T06:11:59.888Z,25.2
2018-07-27T06:13:00.623Z,25.2
2018-07-27T06:14:01.359Z,25.3
2018-07-27T06:15:02.078Z,25.3
2018-07-27T06:16:02.810Z,25.4
2018-07-27T06:17:03.790Z,25.4
2018-07-27T06:18:04.598Z,25.4
2018-07-27T06:19:05.310Z,25.5
2018-07-27T06:20:06.050Z,25.5
2018-07-27T06:21:07.078Z,25.5
2018-07-27T06:22:07.776Z,25.6
2018-07-27T06:23:08.510Z,25.6
2018-07-27T06:24:09.626Z,25.7
2018-07-27T06:25:10.337Z,25.7
2018-07-27T06:26:11.070Z,25.7
2018-07-27T06:27:11.807Z,25.8
2018-07-27T06:28:12.549Z,25.9
2018-07-27T06:29:13.300Z,25.9
2018-07-27T06:30:14.012Z,26.0
2018-07-27T06:31:14.794Z,25.9
2018-07-27T06:32:15.527Z,26.0
2018-07-27T06:33:16.257Z,26.1
2018-07-27T06:34:17.003Z,26.2
2018-07-27T06:35:17.727Z,26.2
2018-07-27T06:36:18.461Z,26.3
2018-07-27T06:37:19.197Z,26.4
2018-07-27T06:38:19.927Z,26.3
2018-07-27T06:39:20.691Z,26.5
2018-07-27T06:40:21.440Z,26.5
2018-07-27T06:41:22.219Z,26.6
2018-07-27T06:42:22.955Z,26.7
2018-07-27T06:43:23.681Z,26.7
2018-07-27T06:44:24.426Z,26.8
2018-07-27T06:45:25.153Z,26.9
2018-07-27T06:46:25.906Z,26.9
2018-07-27T06:47:26.980Z,26.9
2018-07-27T06:48:27.710Z,27.1
2018-07-27T06:49:28.448Z,27.1
2018-07-27T06:50:29.180Z,27.1
2018-07-27T06:51:29.950Z,27.3
2018-07-27T06:52:30.698Z,27.4
2018-07-27T06:53:31.469Z,27.4
2018-07-27T06:54:32.212Z,27.4
2018-07-27T06:55:32.943Z,27.4
2018-07-27T06:56:33.676Z,27.5
2018-07-27T06:57:34.437Z,27.6
2018-07-27T06:58:35.170Z,27.7
2018-07-27T06:59:36.153Z,27.7
2018-07-27T07:00:36.879Z,27.9
2018-07-27T07:01:37.612Z,27.8
2018-07-27T07:02:38.389Z,27.9
2018-07-27T07:03:39.150Z,27.7
2018-07-27T07:04:39.870Z,27.8
2018-07-27T07:05:40.603Z,27.8
2018-07-27T07:06:41.330Z,27.9
2018-07-27T07:07:42.073Z,28.0
2018-07-27T07:08:42.801Z,28.0
2018-07-27T07:09:43.627Z,28.0
2018-07-27T07:10:44.707Z,28.1
2018-07-27T07:11:45.444Z,28.1
2018-07-27T07:12:46.175Z,28.2
2018-07-27T07:13:46.918Z,28.3
2018-07-27T07:14:47.979Z,28.4
2018-07-27T07:15:48.709Z,28.4
2018-07-27T07:16:49.449Z,28.4
2018-07-27T07:17:50.176Z,28.5
2018-07-27T07:18:50.996Z,28.6
2018-07-27T07:19:51.723Z,28.6
2018-07-27T07:20:52.457Z,28.7
2018-07-27T07:21:53.199Z,28.7
2018-07-27T07:22:53.949Z,28.7
2018-07-27T07:23:54.673Z,28.7
2018-07-27T07:24:55.651Z,28.6
2018-07-27T07:25:56.767Z,28.7
2018-07-27T07:26:57.111Z,28.8
2018-07-27T07:27:57.848Z,28.8
2018-07-27T07:28:58.580Z,28.9
2018-07-27T07:29:59.318Z,29.0
2018-07-27T07:31:00.071Z,29.1
2018-07-27T07:32:00.812Z,29.1
2018-07-27T07:33:01.606Z,29.3
2018-07-27T07:34:02.309Z,29.4
2018-07-27T07:35:03.050Z,29.6
2018-07-27T07:36:03.847Z,29.7
2018-07-27T07:37:04.577Z,30.0
2018-07-27T07:38:05.313Z,30.2
2018-07-27T07:39:06.067Z,30.6
2018-07-27T07:40:06.817Z,30.8
2018-07-27T07:41:07.616Z,31.0
2018-07-27T07:42:08.344Z,31.2
2018-07-27T07:43:09.085Z,31.3
2018-07-27T07:44:09.840Z,31.5
2018-07-27T07:45:10.608Z,31.7
2018-07-27T07:46:11.669Z,31.8
2018-07-27T07:47:12.405Z,32.1
2018-07-27T07:48:13.139Z,32.1
2018-07-27T07:49:13.923Z,32.3
2018-07-27T07:50:14.881Z,32.7
2018-07-27T07:51:15.874Z,32.9
2018-07-27T07:52:16.599Z,32.9
2018-07-27T07:53:17.379Z,33.3
2018-07-27T07:54:18.120Z,33.5
2018-07-27T07:55:18.864Z,33.6
2018-07-27T07:56:19.616Z,33.8
2018-07-27T07:57:20.352Z,33.8
2018-07-27T07:58:21.145Z,34.1
2018-07-27T07:59:21.889Z,34.3
2018-07-27T08:00:22.902Z,34.8
2018-07-27T08:01:23.949Z,35.2
2018-07-27T08:02:24.671Z,35.4
2018-07-27T08:03:25.508Z,35.4
2018-07-27T08:04:26.470Z,35.7
2018-07-27T08:05:27.188Z,35.6
2018-07-27T08:06:27.919Z,35.6
2018-07-27T08:07:29.533Z,35.2
2018-07-27T08:08:30.289Z,35.2
2018-07-27T08:09:31.043Z,35.0
2018-07-27T08:10:31.777Z,34.4
2018-07-27T08:11:32.567Z,34.8
2018-07-27T08:12:33.315Z,35.3
2018-07-27T08:13:34.062Z,35.4
2018-07-27T08:14:34.799Z,35.1
2018-07-27T08:15:35.544Z,34.7
2018-07-27T08:16:36.430Z,35.1
2018-07-27T08:17:37.173Z,35.2
2018-07-27T08:18:38.170Z,35.0
2018-07-27T08:19:38.892Z,34.8
2018-07-27T08:20:39.634Z,34.8
2018-07-27T08:21:40.375Z,34.6
2018-07-27T08:22:41.108Z,34.9
2018-07-27T08:23:41.846Z,35.2
2018-07-27T08:24:42.821Z,35.5
2018-07-27T08:25:43.572Z,35.7
2018-07-27T08:26:44.298Z,36.1
2018-07-27T08:27:45.041Z,36.2
2018-07-27T08:28:45.782Z,35.9
2018-07-27T08:29:46.527Z,36.0
2018-07-27T08:30:47.270Z,36.2
2018-07-27T08:31:48.425Z,36.0
2018-07-27T08:32:49.427Z,35.8
2018-07-27T08:33:50.416Z,35.7
2018-07-27T08:34:51.163Z,35.5
2018-07-27T08:35:51.906Z,35.3
2018-07-27T08:36:52.640Z,35.1
2018-07-27T08:37:53.383Z,35.4
2018-07-27T08:38:54.208Z,35.2
2018-07-27T08:39:54.969Z,35.0
2018-07-27T08:40:55.710Z,35.3
2018-07-27T08:41:56.789Z,35.6
2018-07-27T08:42:57.747Z,35.7
2018-07-27T08:43:58.739Z,35.7
2018-07-27T08:44:59.721Z,36.0
2018-07-27T08:46:00.604Z,36.4
2018-07-27T08:47:01.336Z,36.7
2018-07-27T08:48:02.081Z,36.9
2018-07-27T08:49:02.816Z,37.0
2018-07-27T08:50:03.567Z,36.3
2018-07-27T08:51:04.304Z,35.7
2018-07-27T08:52:05.040Z,35.7
2018-07-27T08:53:05.772Z,35.9
2018-07-27T08:54:06.496Z,35.8
2018-07-27T08:55:07.242Z,35.9
2018-07-27T08:56:07.979Z,36.1
2018-07-27T08:57:08.736Z,36.2
2018-07-27T08:58:09.472Z,36.2
2018-07-27T08:59:10.212Z,36.5
2018-07-27T09:00:11.037Z,36.6
2018-07-27T09:01:11.777Z,36.6
2018-07-27T09:02:12.496Z,36.7
2018-07-27T09:03:13.229Z,36.9
2018-07-27T09:04:13.973Z,36.6
2018-07-27T09:05:14.714Z,36.9
2018-07-27T09:06:15.452Z,37.0
2018-07-27T09:07:16.196Z,36.9
2018-07-27T09:08:16.938Z,36.6
2018-07-27T09:09:17.694Z,36.3
2018-07-27T09:10:18.565Z,36.1
2018-07-27T09:11:19.180Z,36.3
2018-07-27T09:12:19.928Z,36.6
2018-07-27T09:13:20.677Z,36.7
2018-07-27T09:14:21.410Z,37.1
2018-07-27T09:15:22.174Z,36.8
2018-07-27T09:16:22.911Z,36.9
2018-07-27T09:17:23.749Z,37.0
2018-07-27T09:18:24.449Z,37.2
2018-07-27T09:19:25.215Z,37.1
2018-07-27T09:20:25.939Z,37.0
2018-07-27T09:21:26.669Z,36.9
2018-07-27T09:22:27.759Z,36.7
2018-07-27T09:23:28.742Z,37.0
2018-07-27T09:24:29.510Z,37.1
2018-07-27T09:25:30.229Z,37.2
2018-07-27T09:26:30.967Z,37.3
2018-07-27T09:27:31.703Z,37.4
2018-07-27T09:28:32.457Z,37.8
2018-07-27T09:29:33.194Z,38.0
2018-07-27T09:30:34.197Z,37.9
2018-07-27T09:31:34.934Z,38.1
2018-07-27T09:32:35.723Z,38.0
2018-07-27T09:33:36.480Z,38.2
2018-07-27T09:34:37.224Z,38.4
2018-07-27T09:35:38.219Z,38.5
2018-07-27T09:36:38.959Z,38.3
2018-07-27T09:37:39.760Z,38.3
2018-07-27T09:38:40.763Z,38.5
2018-07-27T09:39:41.899Z,37.8
2018-07-27T09:40:42.631Z,37.8
2018-07-27T09:41:43.377Z,37.7
2018-07-27T09:42:44.127Z,37.8
2018-07-27T09:43:44.888Z,38.2
2018-07-27T09:44:45.971Z,38.3
2018-07-27T09:45:46.714Z,38.6
2018-07-27T09:46:47.460Z,38.7
2018-07-27T09:47:48.204Z,38.8
2018-07-27T09:48:48.960Z,38.9
2018-07-27T09:49:49.750Z,39.1
2018-07-27T09:50:50.524Z,39.3
2018-07-27T09:51:51.251Z,39.2
2018-07-27T09:52:52.001Z,38.8
2018-07-27T09:53:52.774Z,38.5
2018-07-27T09:54:53.524Z,38.5
2018-07-27T09:55:54.255Z,38.5
2018-07-27T09:56:55.022Z,38.3
2018-07-27T09:57:55.761Z,38.0
2018-07-27T09:58:56.491Z,38.0
2018-07-27T09:59:57.251Z,38.2
2018-07-27T10:00:57.998Z,38.3
2018-07-27T10:01:58.771Z,38.1
2018-07-27T10:02:59.540Z,38.4
2018-07-27T10:04:00.276Z,38.4
2018-07-27T10:05:01.021Z,38.5
2018-07-27T10:06:01.758Z,38.8
2018-07-27T10:07:02.549Z,38.7
2018-07-27T10:08:03.294Z,38.7
2018-07-27T10:09:04.311Z,38.9
2018-07-27T10:10:05.053Z,38.7
2018-07-27T10:11:05.796Z,38.5
2018-07-27T10:12:06.542Z,38.5
2018-07-27T10:13:07.277Z,38.6
2018-07-27T10:14:08.019Z,38.9
2018-07-27T10:15:08.762Z,39.1
2018-07-27T10:16:09.502Z,39.0
2018-07-27T10:17:10.253Z,39.4
2018-07-27T10:18:10.995Z,39.1
2018-07-27T10:19:11.993Z,39.3
2018-07-27T10:20:12.732Z,39.5
2018-07-27T10:21:13.468Z,39.6
2018-07-27T10:22:14.455Z,39.3
2018-07-27T10:23:15.208Z,39.2
2018-07-27T10:24:15.948Z,39.0
2018-07-27T10:25:16.679Z,38.9
2018-07-27T10:26:17.475Z,39.0
2018-07-27T10:27:18.221Z,39.0
2018-07-27T10:28:18.963Z,39.1
2018-07-27T10:29:19.699Z,39.2
2018-07-27T10:30:21.182Z,39.0
2018-07-27T10:31:21.985Z,39.0
2018-07-27T10:32:22.703Z,39.2
2018-07-27T10:33:23.440Z,39.1
2018-07-27T10:34:24.189Z,38.9
2018-07-27T10:35:24.929Z,39.1
2018-07-27T10:36:25.711Z,39.0
2018-07-27T10:37:26.462Z,38.9
2018-07-27T10:38:27.460Z,39.1
2018-07-27T10:39:28.207Z,39.1
2018-07-27T10:40:29.379Z,38.6
2018-07-27T10:41:30.455Z,38.3
2018-07-27T10:42:31.203Z,38.6
2018-07-27T10:43:31.994Z,38.7
2018-07-27T10:44:32.746Z,39.0
2018-07-27T10:45:33.866Z,39.1
2018-07-27T10:46:34.750Z,39.0
2018-07-27T10:47:35.512Z,39.2
2018-07-27T10:48:36.251Z,39.5
2018-07-27T10:49:37.437Z,39.6
2018-07-27T10:50:38.219Z,39.7
2018-07-27T10:51:38.960Z,40.0
2018-07-27T10:52:39.705Z,40.1
2018-07-27T10:53:40.928Z,40.4
2018-07-27T10:54:41.696Z,40.3
2018-07-27T10:55:42.443Z,40.2
2018-07-27T10:56:43.185Z,40.3
2018-07-27T10:57:43.933Z,40.2
2018-07-27T10:58:44.668Z,40.5
2018-07-27T10:59:45.407Z,40.1
2018-07-27T11:00:46.155Z,40.0
2018-07-27T11:01:46.883Z,39.8
2018-07-27T11:02:47.621Z,39.7
2018-07-27T11:03:48.745Z,39.5
2018-07-27T11:04:49.505Z,39.8
2018-07-27T11:05:50.252Z,39.5
2018-07-27T11:06:50.993Z,39.7
2018-07-27T11:07:51.731Z,39.9
2018-07-27T11:08:52.503Z,40.2
2018-07-27T11:09:53.244Z,40.1
2018-07-27T11:10:54.255Z,40.3
2018-07-27T11:11:55.048Z,40.6
2018-07-27T11:12:55.781Z,40.7
2018-07-27T11:13:57.092Z,40.8
2018-07-27T11:14:57.894Z,40.8
2018-07-27T11:15:58.681Z,39.9
2018-07-27T11:16:59.420Z,40.3
2018-07-27T11:18:00.189Z,40.5
2018-07-27T11:19:00.963Z,40.9
2018-07-27T11:20:01.697Z,40.7
2018-07-27T11:21:02.445Z,41.1
2018-07-27T11:22:03.186Z,40.6
2018-07-27T11:23:03.932Z,40.5
2018-07-27T11:24:04.684Z,40.9
2018-07-27T11:25:05.432Z,40.8
2018-07-27T11:26:06.174Z,40.5
2018-07-27T11:27:06.916Z,40.3
2018-07-27T11:28:07.668Z,40.1
2018-07-27T11:29:08.447Z,39.8
2018-07-27T11:30:09.197Z,38.6
2018-07-27T11:31:10.191Z,38.5
2018-07-27T11:32:10.931Z,38.9
2018-07-27T11:33:11.672Z,38.9
2018-07-27T11:34:12.439Z,39.1
2018-07-27T11:35:13.185Z,39.2
2018-07-27T11:36:13.947Z,39.4
2018-07-27T11:37:14.730Z,39.7
2018-07-27T11:38:15.440Z,40.0
2018-07-27T11:39:16.225Z,40.5
2018-07-27T11:40:16.969Z,40.5
2018-07-27T11:41:17.721Z,40.4
2018-07-27T11:42:18.483Z,40.4
2018-07-27T11:43:19.228Z,40.7
2018-07-27T11:44:20.036Z,41.0
2018-07-27T11:45:20.782Z,41.1
2018-07-27T11:46:21.571Z,41.6
2018-07-27T11:47:22.353Z,41.6
2018-07-27T11:48:23.349Z,41.8
2018-07-27T11:49:24.175Z,41.8
2018-07-27T11:50:24.904Z,41.8
2018-07-27T11:51:25.652Z,41.2
2018-07-27T11:52:26.387Z,41.1
2018-07-27T11:53:27.138Z,41.2
2018-07-27T11:54:28.241Z,41.5
2018-07-27T11:55:29.004Z,41.7
2018-07-27T11:56:29.755Z,42.0
2018-07-27T11:57:30.484Z,41.2
2018-07-27T11:58:31.228Z,41.3
2018-07-27T11:59:31.991Z,41.3
2018-07-27T12:00:32.740Z,41.5
2018-07-27T12:01:33.545Z,41.8
2018-07-27T12:02:34.231Z,41.5
2018-07-27T12:03:34.979Z,41.7
2018-07-27T12:04:35.722Z,41.0
2018-07-27T12:05:36.460Z,40.8
2018-07-27T12:06:37.447Z,40.5
2018-07-27T12:07:38.188Z,40.8
2018-07-27T12:08:38.927Z,41.1
2018-07-27T12:09:39.666Z,41.6
2018-07-27T12:10:40.410Z,41.3
2018-07-27T12:11:41.219Z,41.5
2018-07-27T12:12:41.966Z,41.4
2018-07-27T12:13:42.712Z,41.7
2018-07-27T12:14:43.548Z,41.9
2018-07-27T12:15:44.196Z,42.1
2018-07-27T12:16:44.936Z,42.4
2018-07-27T12:17:45.682Z,42.7
2018-07-27T12:18:46.432Z,42.5
2018-07-27T12:19:47.177Z,42.5
2018-07-27T12:20:48.098Z,42.3
2018-07-27T12:21:49.043Z,42.1
2018-07-27T12:22:49.523Z,41.9
2018-07-27T12:23:50.274Z,42.0
2018-07-27T12:24:51.028Z,41.9
2018-07-27T12:25:51.761Z,41.4
2018-07-27T12:26:52.844Z,41.3
2018-07-27T12:27:56.755Z,41.3
2018-07-27T12:28:57.552Z,41.7
2018-07-27T12:29:58.290Z,41.9
2018-07-27T12:30:59.317Z,42.0
2018-07-27T12:32:00.178Z,42.1
2018-07-27T12:33:01.048Z,42.2
2018-07-27T12:34:01.797Z,42.5
2018-07-27T12:35:02.540Z,42.8
2018-07-27T12:36:03.277Z,42.2
2018-07-27T12:37:04.025Z,42.3
2018-07-27T12:38:04.766Z,42.1
2018-07-27T12:39:05.851Z,41.7
2018-07-27T12:40:06.571Z,41.8
2018-07-27T12:41:07.320Z,41.3
2018-07-27T12:42:08.070Z,41.6
2018-07-27T12:43:08.807Z,41.7
2018-07-27T12:44:09.564Z,41.0
2018-07-27T12:45:10.319Z,41.4
2018-07-27T12:46:11.063Z,41.7
2018-07-27T12:47:11.807Z,42.0
2018-07-27T12:48:12.571Z,42.2
2018-07-27T12:49:13.591Z,42.5
2018-07-27T12:50:14.328Z,42.3
2018-07-27T12:51:15.104Z,42.5
2018-07-27T12:52:15.806Z,42.5
2018-07-27T12:53:16.830Z,42.5
2018-07-27T12:54:17.598Z,42.2
2018-07-27T12:55:18.348Z,41.7
2018-07-27T12:56:19.091Z,42.0
2018-07-27T12:57:19.839Z,42.0
2018-07-27T12:58:20.647Z,42.1
2018-07-27T12:59:21.421Z,42.5
2018-07-27T13:00:22.147Z,42.2
2018-07-27T13:01:22.886Z,42.1
2018-07-27T13:02:23.638Z,42.3
2018-07-27T13:03:24.432Z,42.4
2018-07-27T13:04:25.173Z,42.3
2018-07-27T13:05:25.956Z,42.5
2018-07-27T13:06:26.664Z,42.8
2018-07-27T13:07:27.408Z,43.0
2018-07-27T13:08:28.168Z,43.2
2018-07-27T13:09:28.908Z,43.5
2018-07-27T13:10:29.637Z,43.6
2018-07-27T13:11:30.388Z,43.6
2018-07-27T13:12:31.129Z,43.6
2018-07-27T13:13:32.141Z,43.0
2018-07-27T13:15:34.530Z,42.7
2018-07-27T13:16:35.311Z,42.2
2018-07-27T13:17:36.057Z,42.7
2018-07-27T13:18:36.798Z,41.8
2018-07-27T13:19:37.551Z,41.0
2018-07-27T13:20:38.291Z,40.8
2018-07-27T13:21:39.059Z,41.0
2018-07-27T13:22:39.808Z,41.3
2018-07-27T13:23:40.801Z,41.4
2018-07-27T13:25:43.297Z,40.9
2018-07-27T13:26:44.065Z,40.7
2018-07-27T13:27:44.803Z,40.8
2018-07-27T13:28:45.555Z,41.2
2018-07-27T13:29:46.346Z,41.5
2018-07-27T13:30:47.085Z,41.4
2018-07-27T13:32:48.522Z,41.5